Time;durP1;ratioP1;P1;durP2;ratioP2;P2;SDS_P1;SDS_P2;PMS_P1;PMS_P2;Temp;Humidity;BMP_temperature;BMP_pressure;BME280_temperature;BME280_humidity;BME280_pressure;Samples;Min_cycle;Max_cycle;Signal;HPM_P1;HPM_P2
2023/09/21 00:00:32;;;;;;;5.47;3.30;;;;;;;17.13;100.00;99099.66;5055744;28;20383;-84
2023/09/21 00:02:58;;;;;;;4.45;3.30;;;;;;;17.15;100.00;99102.97;5073248;28;20027;-84
2023/09/21 00:05:28;;;;;;;4.60;3.30;;;;;;;17.00;100.00;99076.16;5072929;28;20028;-84
2023/09/21 00:07:54;;;;;;;3.83;3.20;;;;;;;17.15;100.00;99095.06;5055354;28;20036;-84
2023/09/21 00:10:19;;;;;;;5.43;3.60;;;;;;;17.04;100.00;99071.47;5073058;28;20466;-84
2023/09/21 00:12:45;;;;;;;5.57;3.25;;;;;;;17.01;100.00;99084.88;5072984;28;20028;-84
2023/09/21 00:15:21;;;;;;;6.45;3.95;;;;;;;16.87;100.00;99062.34;5072841;28;20106;-84
2023/09/21 00:17:50;;;;;;;4.03;3.30;;;;;;;17.05;100.00;99081.84;5072954;28;20025;-84
2023/09/21 00:20:35;;;;;;;5.40;3.45;;;;;;;17.01;100.00;99076.97;5072992;28;20544;-84
2023/09/21 00:23:04;;;;;;;7.40;4.20;;;;;;;16.88;100.00;99054.31;5055023;28;20036;-84
2023/09/21 00:25:30;;;;;;;5.47;3.67;;;;;;;16.83;100.00;99056.47;5054895;28;20036;-84
2023/09/21 00:27:56;;;;;;;4.05;3.17;;;;;;;16.83;100.00;99063.53;5072824;28;20024;-84
2023/09/21 00:30:21;;;;;;;4.18;3.60;;;;;;;16.89;100.00;99070.91;5072462;28;20103;-84
2023/09/21 00:32:47;;;;;;;4.97;3.85;;;;;;;16.74;100.00;99048.53;5072834;28;20020;-84
2023/09/21 00:35:13;;;;;;;6.45;3.47;;;;;;;16.90;100.00;99085.75;5072471;28;20028;-84
2023/09/21 00:37:39;;;;;;;4.22;3.72;;;;;;;16.75;100.00;99060.69;5072712;28;20063;-84
2023/09/21 00:40:17;;;;;;;5.07;3.55;;;;;;;16.91;100.00;99076.91;5072410;28;20029;-83
2023/09/21 00:42:44;;;;;;;6.05;3.47;;;;;;;16.85;100.00;99066.88;5072455;28;20035;-84
2023/09/21 00:45:10;;;;;;;5.53;3.28;;;;;;;16.80;100.00;99048.84;5072458;28;20066;-84
2023/09/21 00:47:39;;;;;;;5.80;3.67;;;;;;;16.92;100.00;99068.03;5072576;28;20505;-83
2023/09/21 00:50:10;;;;;;;5.28;3.83;;;;;;;16.70;100.00;99038.22;5029609;28;20135;-84
2023/09/21 00:52:38;;;;;;;5.75;3.55;;;;;;;16.79;100.00;99054.22;5029938;28;20045;-84
2023/09/21 00:55:05;;;;;;;4.22;3.33;;;;;;;16.78;100.00;99057.84;5013405;28;20033;-84
2023/09/21 00:57:33;;;;;;;6.05;3.40;;;;;;;16.78;100.00;99053.41;5029896;28;20021;-84
2023/09/21 00:59:59;;;;;;;4.72;3.90;;;;;;;16.69;100.00;99035.72;5029972;28;20412;-84
2023/09/21 01:02:25;;;;;;;5.15;3.50;;;;;;;16.87;100.00;99065.78;5029945;28;20037;-84
2023/09/21 01:04:52;;;;;;;6.80;3.60;;;;;;;16.80;100.00;99053.25;5029967;28;20467;-84
2023/09/21 01:07:22;;;;;;;3.38;3.08;;;;;;;16.62;100.00;99031.91;5029667;28;20032;-84
2023/09/21 01:09:50;;;;;;;6.25;3.47;;;;;;;16.57;100.00;99028.81;5012543;28;20500;-84
2023/09/21 01:12:16;;;;;;;3.95;3.33;;;;;;;16.63;100.00;99051.97;5029426;28;20099;-84
2023/09/21 01:14:44;;;;;;;5.50;3.53;;;;;;;16.59;100.00;99032.16;5029752;28;20435;-84
2023/09/21 01:17:09;;;;;;;7.25;4.13;;;;;;;16.64;100.00;99051.00;5029458;28;20172;-84
2023/09/21 01:19:35;;;;;;;7.18;3.30;;;;;;;16.66;100.00;99055.19;5029695;28;20104;-84
2023/09/21 01:22:11;;;;;;;5.10;4.00;;;;;;;16.49;100.00;99016.31;5051725;28;20132;-84
2023/09/21 01:24:38;;;;;;;5.28;3.75;;;;;;;16.56;100.00;99040.28;5072213;28;20456;-84
2023/09/21 01:27:03;;;;;;;5.78;4.15;;;;;;;16.52;100.00;99042.34;5071933;28;20147;-84
2023/09/21 01:29:30;;;;;;;4.72;3.67;;;;;;;16.51;100.00;99030.13;5072016;28;20156;-84
2023/09/21 01:31:57;;;;;;;5.70;3.63;;;;;;;16.46;100.00;99034.94;5071914;28;20029;-84
2023/09/21 01:34:22;;;;;;;7.93;4.18;;;;;;;16.33;100.00;99010.59;5071825;28;20055;-84
2023/09/21 01:36:48;;;;;;;5.47;4.00;;;;;;;16.44;100.00;99026.34;5071924;28;20538;-84
2023/09/21 01:39:13;;;;;;;8.57;4.28;;;;;;;16.36;100.00;99013.81;5071857;28;20436;-84
2023/09/21 01:41:39;;;;;;;5.68;4.45;;;;;;;16.17;100.00;99000.47;5053888;28;20502;-84
2023/09/21 01:44:06;;;;;;;4.53;3.83;;;;;;;16.05;100.00;98980.44;5071897;28;20028;-84
2023/09/21 01:46:33;;;;;;;5.38;4.07;;;;;;;16.21;100.00;99015.03;5071610;28;20027;-84
2023/09/21 01:48:58;;;;;;;6.65;4.25;;;;;;;16.03;100.00;99000.75;5071441;28;20049;-83
2023/09/21 01:51:24;;;;;;;5.47;3.70;;;;;;;16.05;100.00;99009.34;5071340;28;20120;-84
2023/09/21 01:53:49;;;;;;;5.80;4.25;;;;;;;16.04;100.00;99005.06;5068532;28;20090;-84
2023/09/21 01:56:15;;;;;;;6.82;3.90;;;;;;;15.96;100.00;99003.84;5053536;28;20491;-84
2023/09/21 01:58:40;;;;;;;5.68;4.13;;;;;;;15.81;100.00;98967.50;5071789;28;20028;-84
2023/09/21 02:01:05;;;;;;;6.55;4.20;;;;;;;15.91;100.00;98987.63;5053673;28;20023;-84
2023/09/21 02:03:31;;;;;;;3.90;3.33;;;;;;;15.96;100.00;99000.41;5071342;28;20040;-84
2023/09/21 02:05:59;;;;;;;6.82;4.25;;;;;;;15.91;100.00;98994.69;5053503;28;20028;-84
2023/09/21 02:08:25;;;;;;;4.90;4.32;;;;;;;15.76;100.00;98970.47;5053471;28;20534;-84
2023/09/21 02:10:52;;;;;;;5.35;3.80;;;;;;;15.89;100.00;98989.56;5071638;28;20032;-84
2023/09/21 02:13:18;;;;;;;4.85;3.88;;;;;;;15.99;100.00;99000.16;5071406;28;20349;-84
2023/09/21 02:15:44;;;;;;;5.10;3.88;;;;;;;15.77;100.00;98960.81;5071490;28;20031;-84
2023/09/21 02:18:10;;;;;;;5.40;3.72;;;;;;;15.95;100.00;98991.69;5071536;28;20497;-84
2023/09/21 02:20:41;;;;;;;9.07;5.10;;;;;;;15.97;100.00;98986.34;5071809;28;20035;-84
2023/09/21 02:23:07;;;;;;;;;;;;;;;16.00;100.00;98991.31;5075806;28;20127;-84
2023/09/21 02:25:40;;;;;;;4.97;3.65;;;;;;;15.89;100.00;98984.31;5075026;28;20417;-84
2023/09/21 02:28:12;;;;;;;5.20;3.95;;;;;;;15.74;100.00;98943.50;5057283;28;20029;-84
2023/09/21 02:30:48;;;;;;;4.80;4.10;;;;;;;15.90;100.00;98985.97;5057135;28;20047;-84
2023/09/21 02:33:16;;;;;;;7.10;4.20;;;;;;;15.70;100.00;98942.91;5074610;28;20028;-84
2023/09/21 02:35:41;;;;;;;6.07;4.10;;;;;;;15.89;100.00;98971.19;5057127;28;20020;-83
2023/09/21 02:38:11;;;;;;;4.60;3.90;;;;;;;15.78;100.00;98967.72;5057053;28;20035;-84
2023/09/21 02:40:38;;;;;;;5.57;3.35;;;;;;;15.66;100.00;98938.84;5074813;28;20025;-83
2023/09/21 02:43:05;;;;;;;4.25;3.60;;;;;;;15.79;100.00;98957.09;5074847;28;20031;-84
2023/09/21 02:45:31;;;;;;;4.28;3.78;;;;;;;15.75;100.00;98954.84;5074623;28;20028;-84
2023/09/21 02:48:00;;;;;;;4.63;3.75;;;;;;;15.83;100.00;98963.78;5074609;28;20047;-84
2023/09/21 02:50:27;;;;;;;5.53;3.72;;;;;;;15.79;100.00;98959.72;5074617;28;20035;-84
2023/09/21 02:53:09;;;;;;;5.47;3.58;;;;;;;15.80;100.00;98971.91;5074678;28;20133;-84
2023/09/21 02:55:36;;;;;;;5.78;4.25;;;;;;;15.79;100.00;98958.88;5074364;28;20082;-83
2023/09/21 02:58:05;;;;;;;4.93;4.10;;;;;;;15.82;100.00;98969.97;5074488;28;20056;-84
2023/09/21 03:00:34;;;;;;;4.45;3.78;;;;;;;15.56;100.00;98918.69;5073814;28;20024;-84
2023/09/21 03:03:06;;;;;;;4.40;3.90;;;;;;;15.74;100.00;98956.63;5074610;28;20567;-84
2023/09/21 03:05:33;;;;;;;6.43;4.32;;;;;;;15.68;100.00;98946.63;5056360;28;20024;-84
2023/09/21 03:08:08;;;;;;;4.32;3.63;;;;;;;15.70;100.00;98956.03;5056561;28;20075;-83
2023/09/21 03:10:34;;;;;;;6.05;4.13;;;;;;;15.69;100.00;98941.25;5074140;28;20086;-84
2023/09/21 03:13:00;;;;;;;5.45;4.93;;;;;;;15.64;100.00;98935.53;5056084;28;20204;-84
2023/09/21 03:15:25;;;;;;;5.32;4.82;;;;;;;15.68;100.00;98944.81;5056343;28;20035;-84
2023/09/21 03:17:55;;;;;;;5.60;4.15;;;;;;;15.66;100.00;98932.75;5074333;28;20031;-84
2023/09/21 03:20:34;;;;;;;5.45;4.10;;;;;;;15.53;100.00;98914.50;5055832;28;20021;-84
2023/09/21 03:23:09;;;;;;;8.38;4.30;;;;;;;15.56;100.00;98926.56;5074154;28;20094;-84
2023/09/21 03:25:40;;;;;;;5.53;4.30;;;;;;;15.55;100.00;98925.72;5074004;28;20024;-84
2023/09/21 03:28:10;;;;;;;5.18;4.68;;;;;;;15.64;100.00;98945.16;5056221;28;20086;-84
2023/09/21 03:31:05;;;;;;;4.63;4.22;;;;;;;15.67;100.00;98944.94;5073920;28;20028;-84
2023/09/21 03:33:31;;;;;;;6.28;4.32;;;;;;;15.54;100.00;98929.28;5010841;28;20038;-84
2023/09/21 03:35:56;;;;;;;5.55;4.47;;;;;;;15.46;100.00;98923.78;5011573;28;20512;-84
2023/09/21 03:38:22;;;;;;;4.07;3.70;;;;;;;15.58;100.00;98933.34;5011438;28;20069;-84
2023/09/21 03:40:49;;;;;;;4.28;3.85;;;;;;;15.54;100.00;98928.44;5011576;28;20037;-84
2023/09/21 03:43:14;;;;;;;6.10;4.13;;;;;;;15.57;100.00;98936.91;5011578;28;20440;-84
2023/09/21 03:45:43;;;;;;;4.75;3.97;;;;;;;15.59;100.00;98940.28;5011366;28;20045;-84
2023/09/21 03:48:09;;;;;;;5.38;4.38;;;;;;;15.61;100.00;98948.03;4991527;28;20502;-84
2023/09/21 03:50:36;;;;;;;5.57;4.32;;;;;;;15.56;100.00;98935.25;4991582;28;20121;-84
2023/09/21 03:53:04;;;;;;;5.80;4.30;;;;;;;15.55;100.00;98928.34;4991651;28;20595;-84
2023/09/21 03:55:33;;;;;;;7.97;5.00;;;;;;;15.51;100.00;98924.28;4991622;28;20030;-84
2023/09/21 03:57:59;;;;;;;9.40;5.07;;;;;;;15.52;100.00;98933.81;4991765;28;20548;-84
2023/09/21 04:00:29;;;;;;;6.95;4.88;;;;;;;15.37;100.00;98903.53;4975236;28;20038;-84
2023/09/21 04:02:59;;;;;;;5.57;4.57;;;;;;;15.47;100.00;98915.00;4991568;28;20058;-84
2023/09/21 04:05:26;;;;;;;4.63;4.22;;;;;;;15.54;100.00;98931.06;4989208;28;20484;-83
2023/09/21 04:07:52;;;;;;;8.05;5.18;;;;;;;15.53;100.00;98916.28;4991590;28;20038;-84
2023/09/21 04:10:17;;;;;;;4.90;4.40;;;;;;;15.54;100.00;98920.56;5017462;28;20136;-83
2023/09/21 04:12:44;;;;;;;7.45;5.28;;;;;;;15.31;100.00;98883.03;5030871;28;20693;-84
2023/09/21 04:15:11;;;;;;;5.65;5.05;;;;;;;15.24;100.00;98864.28;5030832;28;20036;-83
2023/09/21 04:17:37;;;;;;;7.22;4.90;;;;;;;15.48;100.00;98908.78;5030598;28;20051;-84
2023/09/21 04:20:10;;;;;;;5.68;4.90;;;;;;;15.50;100.00;98906.84;5049970;28;20452;-83
2023/09/21 04:22:37;;;;;;;8.45;5.78;;;;;;;15.29;100.00;98880.50;5072766;28;20077;-83
2023/09/21 04:25:08;;;;;;;8.35;4.88;;;;;;;15.34;100.00;98890.66;5054970;28;20055;-84
2023/09/21 04:27:38;;;;;;;6.25;5.03;;;;;;;15.34;100.00;98893.28;5072699;28;20036;-84
2023/09/21 04:30:08;;;;;;;7.33;5.50;;;;;;;15.18;100.00;98864.78;5072752;28;20032;-84
2023/09/21 04:32:38;;;;;;;7.55;5.75;;;;;;;15.37;100.00;98893.88;5072607;28;20115;-83
2023/09/21 04:35:07;;;;;;;7.60;5.45;;;;;;;15.45;100.00;98909.84;5054887;28;20120;-84
2023/09/21 04:37:34;;;;;;;5.93;5.05;;;;;;;15.45;100.00;98898.50;5072647;28;20391;-84
2023/09/21 04:40:04;;;;;;;7.32;5.22;;;;;;;15.43;100.00;98900.44;5054994;28;20373;-83
2023/09/21 04:42:29;;;;;;;12.20;5.28;;;;;;;15.29;100.00;98883.13;5072273;28;20040;-83
2023/09/21 04:44:55;;;;;;;7.28;5.45;;;;;;;15.37;100.00;98903.53;5059945;28;20074;-84
2023/09/21 04:47:21;;;;;;;6.35;5.28;;;;;;;15.16;100.00;98874.56;5034696;28;20029;-84
2023/09/21 04:49:48;;;;;;;8.73;5.82;;;;;;;15.33;100.00;98896.84;5052185;28;20049;-84
2023/09/21 04:52:13;;;;;;;8.75;5.78;;;;;;;15.18;100.00;98870.88;5052360;28;20407;-84
2023/09/21 04:54:38;;;;;;;6.50;5.80;;;;;;;15.32;100.00;98897.81;5052532;28;20036;-88
2023/09/21 04:57:04;;;;;;;8.80;5.78;;;;;;;15.30;100.00;98891.88;5072172;28;20086;-90
2023/09/21 04:59:29;;;;;;;8.20;5.57;;;;;;;15.37;100.00;98895.66;5054238;28;20429;-90
2023/09/21 05:01:55;;;;;;;6.88;5.68;;;;;;;15.23;100.00;98873.97;5054397;28;20115;-86
2023/09/21 05:04:21;;;;;;;6.50;5.25;;;;;;;15.38;100.00;98892.94;5054405;28;20094;-85
2023/09/21 05:06:46;;;;;;;8.23;5.60;;;;;;;15.41;100.00;98883.97;5009905;28;20091;-85
2023/09/21 05:09:12;;;;;;;7.07;5.50;;;;;;;15.47;100.00;98891.38;5010356;28;20048;-85
2023/09/21 05:11:41;;;;;;;5.65;4.80;;;;;;;15.51;100.00;98889.34;5009951;28;20034;-85
2023/09/21 05:14:08;;;;;;;8.63;6.63;;;;;;;15.50;100.00;98879.78;4993640;28;20061;-85
2023/09/21 05:16:33;;;;;;;6.47;5.78;;;;;;;15.59;100.00;98887.78;5009879;28;20034;-85
2023/09/21 05:18:59;;;;;;;6.28;5.53;;;;;;;15.57;100.00;98862.59;5010133;28;20587;-85
2023/09/21 05:21:24;;;;;;;5.93;5.30;;;;;;;15.82;100.00;98882.50;5009943;28;20042;-85
2023/09/21 05:23:50;;;;;;;6.78;5.45;;;;;;;15.97;100.00;98889.16;5009854;28;20042;-85
2023/09/21 05:26:15;;;;;;;5.18;4.63;;;;;;;16.17;100.00;98893.59;5009911;28;20081;-85
2023/09/21 05:28:40;;;;;;;11.30;5.57;;;;;;;16.33;100.00;98887.09;5009645;28;20037;-85
2023/09/21 05:31:09;;;;;;;7.53;4.93;;;;;;;16.50;100.00;98883.91;4993244;28;20029;-86
2023/09/21 05:33:38;;;;;;;6.75;5.75;;;;;;;16.54;100.00;98868.72;5009577;28;20163;-85
2023/09/21 05:36:07;;;;;;;7.22;4.95;;;;;;;16.74;100.00;98878.44;5009781;28;20029;-85
2023/09/21 05:38:33;;;;;;;6.72;4.72;;;;;;;16.80;100.00;98853.41;5060289;28;20119;-86
2023/09/21 05:41:02;;;;;;;7.18;5.43;;;;;;;17.09;100.00;98885.94;5071968;28;20547;-85
2023/09/21 05:43:29;;;;;;;7.15;5.00;;;;;;;17.27;100.00;98885.31;5071646;28;20028;-85
2023/09/21 05:45:54;;;;;;;6.22;4.20;;;;;;;17.26;100.00;98863.44;5071821;28;20021;-86
2023/09/21 05:48:20;;;;;;;6.13;4.72;;;;;;;17.41;100.00;98875.28;5071586;28;20083;-86
2023/09/21 05:50:45;;;;;;;5.93;5.13;;;;;;;17.53;100.00;98878.63;5053593;28;20032;-85
2023/09/21 05:53:11;;;;;;;7.30;4.80;;;;;;;17.70;100.00;98856.09;5053446;28;20034;-86
2023/09/21 05:55:37;;;;;;;6.38;4.47;;;;;;;18.04;100.00;98863.66;5072271;28;20111;-85
2023/09/21 05:58:04;;;;;;;5.65;4.35;;;;;;;18.50;100.00;98862.94;5075850;28;20039;-85
2023/09/21 06:00:30;;;;;;;5.25;3.97;;;;;;;18.83;100.00;98873.97;5075495;28;20028;-86
2023/09/21 06:02:55;;;;;;;7.20;4.18;;;;;;;18.87;100.00;98880.63;5075741;28;20043;-86
2023/09/21 06:05:20;;;;;;;6.47;4.38;;;;;;;18.65;100.00;98855.41;5075912;28;20467;-86
2023/09/21 06:07:46;;;;;;;5.57;4.25;;;;;;;18.74;100.00;98878.31;5075332;28;20490;-86
2023/09/21 06:10:11;;;;;;;6.38;3.78;;;;;;;18.73;100.00;98873.19;5075663;28;20024;-85
2023/09/21 06:12:36;;;;;;;6.82;4.60;;;;;;;18.82;100.00;98870.53;5072394;28;20028;-85
2023/09/21 06:15:05;;;;;;;6.70;4.82;;;;;;;18.87;100.00;98863.00;5068603;28;20028;-85
2023/09/21 06:17:31;;;;;;;7.07;4.20;;;;;;;18.93;100.00;98854.53;5075163;28;20039;-85
2023/09/21 06:19:57;;;;;;;5.85;4.03;;;;;;;19.08;100.00;98876.00;5057127;28;20021;-86
2023/09/21 06:22:23;;;;;;;5.25;4.40;;;;;;;19.30;100.00;98873.97;5075075;28;20047;-86
2023/09/21 06:24:48;;;;;;;7.43;4.80;;;;;;;19.37;100.00;98872.41;5057079;28;20494;-86
2023/09/21 06:27:15;;;;;;;4.88;4.20;;;;;;;19.46;100.00;98876.81;5075390;28;20020;-85
2023/09/21 06:29:41;;;;;;;4.85;4.10;;;;;;;19.58;100.00;98865.06;5074678;28;20029;-85
2023/09/21 06:32:07;;;;;;;7.60;4.07;;;;;;;19.72;100.00;98870.84;5075205;28;20020;-86
2023/09/21 06:34:36;;;;;;;6.57;4.28;;;;;;;19.89;100.00;98852.41;5065000;28;20051;-85
2023/09/21 06:37:02;;;;;;;6.43;4.50;;;;;;;20.21;99.17;98880.09;5054696;28;20510;-85
2023/09/21 06:39:28;;;;;;;5.43;4.53;;;;;;;20.33;97.55;98873.59;5054470;28;20104;-86
2023/09/21 06:41:53;;;;;;;5.72;3.78;;;;;;;20.36;97.65;98857.44;5054856;28;20025;-86
2023/09/21 06:44:19;;;;;;;6.93;4.63;;;;;;;20.51;96.60;98878.91;5036856;28;20036;-86
2023/09/21 06:46:44;;;;;;;9.43;4.13;;;;;;;20.29;96.86;98858.19;5054301;28;20513;-86
2023/09/21 06:49:10;;;;;;;7.30;4.28;;;;;;;20.51;96.88;98862.19;5036598;28;20049;-86
2023/09/21 06:51:35;;;;;;;4.88;4.10;;;;;;;20.64;95.90;98854.69;5054123;28;20048;-86
2023/09/21 06:54:01;;;;;;;7.55;4.85;;;;;;;20.60;95.63;98856.81;5054603;28;20051;-86
2023/09/21 06:56:31;;;;;;;4.43;4.00;;;;;;;21.06;95.85;98869.84;5054775;28;20020;-86
2023/09/21 06:58:57;;;;;;;7.03;4.03;;;;;;;21.34;93.20;98875.81;5054761;28;20029;-86
2023/09/21 07:01:23;;;;;;;6.20;4.22;;;;;;;21.43;93.51;98872.19;5054897;28;20021;-86
2023/09/21 07:03:49;;;;;;;4.53;4.00;;;;;;;21.63;93.82;98840.97;5054266;28;20037;-86
2023/09/21 07:06:19;;;;;;;5.05;3.72;;;;;;;22.08;91.73;98860.91;5053026;28;20051;-85
2023/09/21 07:08:44;;;;;;;5.45;4.30;;;;;;;22.39;90.11;98866.44;5053331;28;20036;-86
2023/09/21 07:11:11;;;;;;;8.85;4.20;;;;;;;22.48;88.58;98859.31;5036453;28;20025;-86
2023/09/21 07:13:36;;;;;;;5.32;4.20;;;;;;;22.66;88.57;98855.47;5054278;28;20033;-86
2023/09/21 07:16:01;;;;;;;6.35;4.55;;;;;;;22.74;87.82;98864.44;5054188;28;20025;-86
2023/09/21 07:18:27;;;;;;;6.05;4.50;;;;;;;23.06;87.03;98872.38;5054680;28;20375;-86
2023/09/21 07:20:53;;;;;;;10.05;4.30;;;;;;;23.39;86.37;98859.81;5053790;28;20040;-86
2023/09/21 07:23:18;;;;;;;4.05;3.65;;;;;;;23.64;84.71;98833.94;5054503;28;20494;-86
2023/09/21 07:25:44;;;;;;;5.70;3.75;;;;;;;24.17;83.28;98857.22;5054182;28;20052;-86
2023/09/21 07:28:10;;;;;;;8.45;4.22;;;;;;;24.44;82.17;98862.03;5054108;28;20036;-86
2023/09/21 07:30:36;;;;;;;4.07;3.55;;;;;;;25.36;81.05;98851.09;5053718;28;20025;-86
2023/09/21 07:33:01;;;;;;;6.30;4.22;;;;;;;26.58;77.45;98864.50;5035833;28;20025;-86
2023/09/21 07:35:27;;;;;;;8.07;4.30;;;;;;;26.58;74.70;98870.66;5036222;28;20025;-86
2023/09/21 07:37:52;;;;;;;6.60;4.18;;;;;;;26.56;74.71;98855.88;5053770;28;20029;-86
2023/09/21 07:40:21;;;;;;;4.95;3.55;;;;;;;26.61;76.05;98866.81;5053950;28;20021;-86
2023/09/21 07:42:48;;;;;;;5.78;3.92;;;;;;;26.43;75.48;98861.91;5053548;28;20024;-86
2023/09/21 07:45:15;;;;;;;5.05;4.03;;;;;;;25.93;77.23;98858.34;5053825;28;20029;-86
2023/09/21 07:47:41;;;;;;;4.88;3.45;;;;;;;25.47;79.35;98842.63;5053427;28;20040;-86
2023/09/21 07:50:08;;;;;;;8.75;3.42;;;;;;;25.36;80.25;98861.75;5013824;28;20132;-86
2023/09/21 07:52:35;;;;;;;7.40;4.07;;;;;;;24.92;80.86;98829.78;5013548;28;20408;-86
2023/09/21 07:55:03;;;;;;;5.20;4.05;;;;;;;24.80;81.87;98846.19;5013780;28;20425;-86
2023/09/21 07:57:39;;;;;;;8.77;4.10;;;;;;;24.51;82.69;98846.97;5013741;28;20033;-86
2023/09/21 08:00:06;;;;;;;8.52;4.03;;;;;;;24.54;83.22;98853.78;5013648;28;20041;-86
2023/09/21 08:02:32;;;;;;;5.20;4.13;;;;;;;24.43;84.27;98828.41;5013865;28;20354;-86
2023/09/21 08:04:58;;;;;;;5.60;3.88;;;;;;;24.27;83.73;98826.72;5013799;28;20037;-86
2023/09/21 08:07:26;;;;;;;5.10;3.72;;;;;;;24.27;84.35;98818.72;5013680;28;20022;-86
2023/09/21 08:09:55;;;;;;;5.63;4.03;;;;;;;24.52;85.04;98853.13;5013420;28;20116;-86
2023/09/21 08:12:22;;;;;;;6.40;4.13;;;;;;;24.43;84.22;98828.41;5013401;28;20034;-86
2023/09/21 08:14:48;;;;;;;6.50;4.05;;;;;;;24.22;83.80;98820.25;5011844;28;20122;-86
2023/09/21 08:17:13;;;;;;;4.07;3.65;;;;;;;24.03;84.40;98809.09;5012406;28;20034;-87
2023/09/21 08:19:40;;;;;;;5.13;3.90;;;;;;;23.96;84.98;98833.91;5013323;28;20033;-86
2023/09/21 08:22:05;;;;;;;8.40;4.10;;;;;;;23.93;86.14;98835.09;5013446;28;20444;-86
2023/09/21 08:24:34;;;;;;;6.50;3.95;;;;;;;23.93;86.23;98840.41;5011926;28;20049;-86
2023/09/21 08:27:00;;;;;;;7.10;3.72;;;;;;;23.73;86.60;98807.31;5011939;28;20532;-86
2023/09/21 08:29:26;;;;;;;5.90;3.58;;;;;;;23.83;87.01;98834.50;5013170;28;20113;-86
2023/09/21 08:31:51;;;;;;;5.90;3.95;;;;;;;23.48;87.57;98810.09;5011651;28;20105;-86
2023/09/21 08:34:18;;;;;;;6.85;4.25;;;;;;;23.26;87.32;98805.53;5013238;28;20050;-86
2023/09/21 08:36:44;;;;;;;4.88;3.67;;;;;;;23.38;88.25;98817.44;5012947;28;20054;-86
2023/09/21 08:39:11;;;;;;;6.07;4.10;;;;;;;23.57;88.52;98825.00;5011801;28;20065;-86
2023/09/21 08:41:47;;;;;;;6.35;4.13;;;;;;;23.29;88.58;98790.09;5011491;28;20032;-86
2023/09/21 08:44:12;;;;;;;6.50;4.13;;;;;;;23.48;89.31;98812.75;5012879;28;20033;-87
2023/09/21 08:46:38;;;;;;;5.50;4.07;;;;;;;23.51;88.04;98812.41;5012861;28;20022;-86
2023/09/21 08:49:06;;;;;;;6.70;3.85;;;;;;;23.57;88.15;98819.66;5031937;28;20048;-86
2023/09/21 08:51:32;;;;;;;9.95;4.55;;;;;;;23.53;88.13;98806.91;5052500;28;20094;-86
2023/09/21 08:53:59;;;;;;;8.55;3.80;;;;;;;23.61;88.15;98796.22;5052144;28;20500;-86
2023/09/21 08:56:26;;;;;;;8.23;3.72;;;;;;;23.69;89.57;98806.03;5034384;28;20036;-86
2023/09/21 08:58:55;;;;;;;7.68;4.88;;;;;;;23.68;88.98;98793.72;5034344;28;20120;-86
2023/09/21 09:01:21;;;;;;;6.43;4.30;;;;;;;23.65;87.71;98790.41;5052575;28;20083;-86
2023/09/21 09:03:47;;;;;;;5.60;4.15;;;;;;;23.56;87.48;98778.16;5052224;28;20082;-86
2023/09/21 09:06:13;;;;;;;6.57;3.88;;;;;;;23.70;88.83;98797.84;5052329;28;20381;-86
2023/09/21 09:08:38;;;;;;;5.90;4.10;;;;;;;23.56;88.68;98777.31;5050714;28;20235;-86
2023/09/21 09:11:03;;;;;;;5.57;4.13;;;;;;;23.49;89.53;98768.41;5050911;28;20423;-86
2023/09/21 09:13:31;;;;;;;6.20;3.78;;;;;;;23.53;88.55;98783.81;5052443;28;20455;-86
2023/09/21 09:15:59;;;;;;;6.05;4.10;;;;;;;23.53;89.52;98798.94;5052109;28;20025;-86
2023/09/21 09:18:25;;;;;;;6.63;3.80;;;;;;;23.49;89.35;98801.09;5052085;28;20041;-86
2023/09/21 09:20:51;;;;;;;6.25;3.95;;;;;;;23.46;90.76;98792.66;5033677;28;20502;-86
2023/09/21 09:23:18;;;;;;;6.35;4.38;;;;;;;23.34;89.63;98776.28;5050634;28;20036;-86
2023/09/21 09:25:49;;;;;;;5.43;4.05;;;;;;;23.38;89.47;98791.69;5051608;28;20028;-86
2023/09/21 09:28:15;;;;;;;6.15;3.58;;;;;;;23.38;90.08;98783.72;5052130;28;20029;-86
2023/09/21 09:30:41;;;;;;;8.55;4.65;;;;;;;23.43;91.32;98788.53;5051164;28;20043;-86
2023/09/21 09:33:15;;;;;;;6.00;3.67;;;;;;;23.37;91.59;98757.31;5034015;28;20029;-87
2023/09/21 09:35:45;;;;;;;6.35;4.00;;;;;;;23.51;91.04;98775.19;5033685;28;20029;-86
2023/09/21 09:38:11;;;;;;;5.82;4.25;;;;;;;23.53;90.00;98757.22;5051717;28;20487;-86
2023/09/21 09:40:37;;;;;;;7.05;4.07;;;;;;;23.59;89.60;98761.84;5050911;28;20028;-86
2023/09/21 09:43:05;;;;;;;7.85;4.53;;;;;;;23.68;87.37;98778.59;5033410;28;20025;-86
2023/09/21 09:45:31;;;;;;;6.03;4.15;;;;;;;23.74;88.65;98782.38;5051475;28;20033;-86
2023/09/21 09:48:03;;;;;;;6.68;4.03;;;;;;;23.67;89.74;98757.50;5050990;28;20369;-86
2023/09/21 09:50:33;;;;;;;5.00;4.50;;;;;;;23.84;89.63;98780.31;5033522;28;20029;-86
2023/09/21 09:53:05;;;;;;;8.02;4.00;;;;;;;23.88;88.18;98773.63;5033179;28;20029;-86
2023/09/21 09:55:33;;;;;;;6.10;4.13;;;;;;;23.63;87.43;98741.88;5051556;28;20472;-86
2023/09/21 09:58:00;;;;;;;6.75;3.88;;;;;;;23.84;86.84;98775.81;5051215;28;20036;-86
2023/09/21 10:00:27;;;;;;;6.60;3.92;;;;;;;23.69;87.18;98755.50;5051373;28;20063;-86
2023/09/21 10:02:55;;;;;;;7.00;4.25;;;;;;;23.69;86.80;98744.88;5049445;28;20041;-86
2023/09/21 10:05:20;;;;;;;7.28;4.07;;;;;;;23.86;87.07;98765.84;5033228;28;20036;-86
2023/09/21 10:07:51;;;;;;;6.45;3.95;;;;;;;23.92;86.97;98763.47;5051475;28;20028;-87
2023/09/21 10:10:20;;;;;;;6.38;4.35;;;;;;;23.77;87.57;98736.84;5051342;28;20032;-86
2023/09/21 10:12:49;;;;;;;6.18;4.00;;;;;;;23.99;87.81;98762.59;5050746;28;20025;-87
2023/09/21 10:15:15;;;;;;;7.05;4.53;;;;;;;23.93;86.19;98751.81;5033400;28;20605;-86
2023/09/21 10:17:42;;;;;;;5.03;4.43;;;;;;;23.88;87.00;98750.53;5050913;28;20511;-86
2023/09/21 10:20:14;;;;;;;7.68;4.82;;;;;;;23.96;87.87;98749.63;5051500;28;20029;-86
2023/09/21 10:22:43;;;;;;;6.40;4.55;;;;;;;24.05;86.96;98753.03;5051067;28;20036;-86
2023/09/21 10:25:10;;;;;;;9.18;4.70;;;;;;;23.70;85.70;98696.00;5051234;28;20033;-86
2023/09/21 10:27:38;;;;;;;10.70;4.97;;;;;;;24.02;86.54;98734.78;5051603;28;20495;-86
2023/09/21 10:30:08;;;;;;;5.88;4.50;;;;;;;24.14;87.19;98741.31;5033381;28;20025;-86
2023/09/21 10:32:44;;;;;;;5.18;4.22;;;;;;;24.12;86.73;98730.88;5051062;28;20058;-86
2023/09/21 10:35:18;;;;;;;5.90;4.75;;;;;;;24.04;86.00;98717.66;5033499;28;20029;-86
2023/09/21 10:37:43;;;;;;;9.95;4.95;;;;;;;24.22;86.20;98745.75;5051096;28;20223;-86
2023/09/21 10:40:20;;;;;;;7.13;4.22;;;;;;;24.08;86.97;98715.47;5051250;28;20017;-85
2023/09/21 10:42:45;;;;;;;9.13;4.95;;;;;;;24.29;86.36;98731.53;5053130;28;20032;-86
2023/09/21 10:45:11;;;;;;;8.05;4.60;;;;;;;24.30;85.58;98725.19;5055025;28;20154;-86
2023/09/21 10:47:36;;;;;;;8.70;4.97;;;;;;;24.41;84.11;98723.16;5037017;28;20037;-86
2023/09/21 10:50:06;;;;;;;8.38;4.60;;;;;;;24.29;84.44;98696.94;5036524;28;20055;-86
2023/09/21 10:52:33;;;;;;;7.90;4.65;;;;;;;24.39;83.96;98707.34;5054698;28;20025;-86
2023/09/21 10:54:59;;;;;;;7.82;4.57;;;;;;;24.44;83.76;98709.47;5054442;28;20086;-86
2023/09/21 10:57:28;;;;;;;5.28;3.90;;;;;;;24.58;84.26;98729.94;5054554;28;20353;-86
2023/09/21 10:59:55;;;;;;;7.07;5.28;;;;;;;24.48;83.50;98716.91;5054551;28;20482;-86
2023/09/21 11:02:21;;;;;;;7.43;4.80;;;;;;;24.44;83.28;98709.47;5054659;28;20029;-86
2023/09/21 11:04:52;;;;;;;9.98;4.82;;;;;;;24.51;84.27;98705.88;5054360;28;20039;-86
2023/09/21 11:07:18;;;;;;;7.60;4.43;;;;;;;24.46;84.71;98702.94;5036558;28;20041;-86
2023/09/21 11:09:44;;;;;;;5.18;4.60;;;;;;;24.57;84.90;98709.66;5054266;28;20029;-86
2023/09/21 11:12:13;;;;;;;5.35;4.85;;;;;;;24.55;84.30;98701.03;5054419;28;20514;-86
2023/09/21 11:14:43;;;;;;;6.30;4.72;;;;;;;24.52;83.83;98691.56;5036504;28;20377;-86
2023/09/21 11:17:11;;;;;;;7.30;4.83;;;;;;;24.58;84.09;98690.84;5036276;28;20021;-86
2023/09/21 11:19:37;;;;;;;9.52;5.07;;;;;;;24.63;84.43;98692.94;5055072;28;20422;-86
2023/09/21 11:22:05;;;;;;;10.73;4.72;;;;;;;24.60;83.93;98677.31;5054632;28;20029;-86
2023/09/21 11:24:32;;;;;;;7.00;4.95;;;;;;;24.43;84.55;98651.91;5036155;28;20469;-86
2023/09/21 11:26:58;;;;;;;7.85;4.40;;;;;;;24.53;84.82;98674.59;5053761;28;20488;-86
2023/09/21 11:29:26;;;;;;;7.40;4.63;;;;;;;24.54;83.36;98665.59;5054155;28;20036;-86